Time;durP1;ratioP1;P1;durP2;ratioP2;P2;SDS_P1;SDS_P2;PMS_P1;PMS_P2;Temp;Humidity;BMP_temperature;BMP_pressure;BME280_temperature;BME280_humidity;BME280_pressure;Samples;Min_cycle;Max_cycle;Signal;HPM_P1;HPM_P2
2023/08/02 00:02:20;;;;;;;3.83;1.80;;;;;;;-145.68;100.00;72696.34;10177594;29;20224;-68
2023/08/02 00:07:20;;;;;;;4.03;1.30;;;;;;;-145.68;100.00;72696.34;10177664;29;20220;-68
2023/08/02 00:12:20;;;;;;;1.77;1.50;;;;;;;-145.68;99.35;72700.34;10177317;29;20221;-68
2023/08/02 00:17:21;;;;;;;6.20;1.40;;;;;;;-145.68;100.00;72728.34;10176912;29;20855;-68
2023/08/02 00:22:21;;;;;;;4.50;1.60;;;;;;;-145.68;100.00;72750.31;10177133;29;20707;-69
2023/08/02 00:27:22;;;;;;;4.57;1.88;;;;;;;-145.68;100.00;72750.31;10176651;29;20331;-68
2023/08/02 00:32:22;;;;;;;5.20;1.40;;;;;;;-145.68;100.00;72774.31;10176763;29;20209;-68
2023/08/02 00:37:22;;;;;;;2.30;1.50;;;;;;;-145.68;100.00;72770.31;10175944;29;20239;-68
2023/08/02 00:42:23;;;;;;;6.25;1.80;;;;;;;-145.68;100.00;72778.28;10198333;29;20211;-68
2023/08/02 00:47:26;;;;;;;3.30;1.75;;;;;;;-145.68;100.00;72782.28;10215078;29;20661;-68
2023/08/02 00:52:27;;;;;;;3.10;1.80;;;;;;;-145.68;100.00;72796.28;10197835;29;20200;-69
2023/08/02 00:57:27;;;;;;;5.00;2.00;;;;;;;-145.68;100.00;72788.28;10214874;29;20239;-68
2023/08/02 01:02:28;;;;;;;4.75;2.22;;;;;;;-145.68;100.00;72772.31;10197376;29;20215;-68
2023/08/02 01:07:46;;;;;;;6.25;1.90;;;;;;;-145.68;100.00;72786.28;10214535;29;20292;-69
2023/08/02 01:12:48;;;;;;;3.63;1.88;;;;;;;-145.68;100.00;72790.28;10197321;29;20767;-68
2023/08/02 01:17:50;;;;;;;2.20;1.73;;;;;;;-145.68;100.00;72792.28;10181260;29;20263;-68
2023/08/02 01:22:50;;;;;;;6.30;2.20;;;;;;;-145.68;100.00;72810.28;10213654;29;20291;-68
2023/08/02 01:27:53;;;;;;;2.88;1.50;;;;;;;-145.68;100.00;72790.28;10213674;29;20287;-68
2023/08/02 01:32:55;;;;;;;4.10;1.75;;;;;;;-145.68;100.00;72796.28;10213717;29;20216;-68
2023/08/02 01:37:56;;;;;;;2.78;1.65;;;;;;;-145.68;100.00;72798.28;10196103;29;20610;-68
2023/08/02 01:42:57;;;;;;;3.65;1.88;;;;;;;-145.68;100.00;72808.28;10197007;29;20207;-68
2023/08/02 01:47:58;;;;;;;3.72;1.90;;;;;;;-145.68;100.00;72810.28;10195578;29;20227;-68
2023/08/02 01:52:58;;;;;;;3.83;2.63;;;;;;;-145.68;100.00;72792.28;10212953;29;20208;-68
2023/08/02 01:58:00;;;;;;;5.95;2.13;;;;;;;-145.68;100.00;72808.28;10212337;29;20232;-68
2023/08/02 02:03:00;;;;;;;3.67;1.55;;;;;;;-145.68;100.00;72800.28;10194691;29;20240;-68
2023/08/02 02:08:01;;;;;;;5.78;1.65;;;;;;;-145.68;100.00;72806.28;10195444;29;20617;-68
2023/08/02 02:13:01;;;;;;;5.93;1.95;;;;;;;-145.68;100.00;72800.28;10211779;29;20310;-68
2023/08/02 02:18:02;;;;;;;3.60;1.75;;;;;;;-145.68;100.00;72800.28;10212013;29;20235;-68
2023/08/02 02:23:03;;;;;;;5.25;1.88;;;;;;;-145.68;100.00;72812.28;10194672;29;20286;-68
2023/08/02 02:28:03;;;;;;;5.40;1.85;;;;;;;-145.68;100.00;72816.25;10211526;29;20282;-67
2023/08/02 02:33:04;;;;;;;6.90;1.90;;;;;;;-145.68;100.00;72820.25;10194214;29;20216;-68
2023/08/02 02:38:05;;;;;;;8.40;1.70;;;;;;;-145.68;100.00;72816.25;10211087;29;20243;-68
2023/08/02 02:43:05;;;;;;;8.15;1.80;;;;;;;-145.68;100.00;72824.25;10211424;29;20212;-68
2023/08/02 02:48:05;;;;;;;8.85;1.98;;;;;;;-145.68;100.00;72816.25;10210812;29;20306;-68
2023/08/02 02:53:06;;;;;;;6.38;2.05;;;;;;;-145.68;100.00;72804.28;10193917;29;20207;-67
2023/08/02 02:58:06;;;;;;;5.13;1.67;;;;;;;-145.68;100.00;72796.28;10194170;29;20239;-67
2023/08/02 03:03:07;;;;;;;3.97;1.75;;;;;;;-145.68;100.00;72818.25;10211044;29;20306;-67
2023/08/02 03:08:07;;;;;;;4.00;1.48;;;;;;;-145.68;100.00;72822.25;10210644;29;20613;-68
2023/08/02 03:13:07;;;;;;;3.50;1.80;;;;;;;-145.68;100.00;72808.28;10210351;29;20298;-68
2023/08/02 03:18:08;;;;;;;6.22;1.75;;;;;;;-145.68;100.00;72804.28;10216072;29;20247;-69
2023/08/02 03:23:09;;;;;;;5.32;2.25;;;;;;;-145.68;100.00;72828.25;10218382;29;20204;-68
2023/08/02 03:28:09;;;;;;;2.28;1.30;;;;;;;-145.68;100.00;72830.25;10217980;29;20231;-69
2023/08/02 03:33:09;;;;;;;3.50;1.38;;;;;;;-145.68;100.00;72836.25;10218021;29;20283;-69
2023/08/02 03:38:10;;;;;;;4.57;1.65;;;;;;;-145.68;100.00;72834.25;10200456;29;20283;-68
2023/08/02 03:43:10;;;;;;;3.13;1.30;;;;;;;-145.68;100.00;72824.25;10217478;29;20215;-68
2023/08/02 03:48:10;;;;;;;3.10;1.73;;;;;;;-145.68;100.00;72828.25;10217430;29;20232;-68
2023/08/02 03:53:11;;;;;;;2.10;1.58;;;;;;;-145.68;100.00;72830.25;10216866;29;20220;-68
2023/08/02 03:58:11;;;;;;;3.67;1.63;;;;;;;-145.68;100.00;72840.25;10199926;29;20243;-68
2023/08/02 04:03:12;;;;;;;4.43;1.58;;;;;;;-145.68;100.00;72826.25;10216624;29;20702;-68
2023/08/02 04:08:12;;;;;;;7.22;1.85;;;;;;;-145.68;100.00;72810.28;10216545;29;20228;-68
2023/08/02 04:13:12;;;;;;;3.35;1.58;;;;;;;-145.68;100.00;72804.28;10216629;29;20714;-68
2023/08/02 04:18:13;;;;;;;8.25;1.65;;;;;;;-145.68;100.00;72810.28;10215953;29;20676;-68
2023/08/02 04:23:13;;;;;;;3.70;1.75;;;;;;;-145.68;100.00;72784.28;10216344;29;20222;-68
2023/08/02 04:28:13;;;;;;;2.15;1.33;;;;;;;-145.68;100.00;72780.28;10215144;29;20236;-68
2023/08/02 04:33:14;;;;;;;6.38;1.50;;;;;;;-145.68;100.00;72764.31;10215823;29;20234;-68
2023/08/02 04:38:14;;;;;;;4.75;1.50;;;;;;;-145.68;98.97;72748.31;10215494;29;20298;-68
2023/08/02 04:43:14;;;;;;;3.55;1.42;;;;;;;-145.68;98.37;72732.34;10215116;29;20216;-68
2023/08/02 04:48:15;;;;;;;6.25;1.70;;;;;;;-145.68;98.74;72716.34;10215509;29;20223;-68
2023/08/02 04:53:15;;;;;;;6.43;1.83;;;;;;;-145.68;96.17;72668.38;10214776;29;20230;-68
2023/08/02 04:58:15;;;;;;;6.47;2.00;;;;;;;-145.68;90.93;72594.44;10227705;23;20248;-70
2023/08/02 05:03:16;;;;;;;8.77;1.88;;;;;;;-145.68;85.05;72536.50;10253922;29;20218;-67
2023/08/02 05:08:16;;;;;;;7.57;2.25;;;;;;;-145.68;81.73;72504.53;10224739;29;20224;-67
2023/08/02 05:13:17;;;;;;;5.38;1.65;;;;;;;-145.68;79.19;72492.53;10214118;29;20223;-68
2023/08/02 05:18:17;;;;;;;5.57;2.10;;;;;;;-145.68;80.52;72498.53;10213697;29;20254;-67
2023/08/02 05:23:18;;;;;;;6.68;2.00;;;;;;;-145.68;79.64;72488.53;10213943;29;20207;-68
2023/08/02 05:28:18;;;;;;;5.75;1.90;;;;;;;-145.68;78.98;72486.53;10213568;29;20294;-68
2023/08/02 05:33:19;;;;;;;2.65;1.30;;;;;;;-145.68;79.53;72496.53;10213374;29;20216;-68
2023/08/02 05:38:20;;;;;;;3.55;1.95;;;;;;;-145.68;80.85;72476.53;10212321;29;20239;-68
2023/08/02 05:43:20;;;;;;;4.47;1.83;;;;;;;-145.68;79.13;72468.56;10196062;29;20267;-68
2023/08/02 05:48:20;;;;;;;4.47;1.45;;;;;;;-145.68;79.32;72486.53;10212936;29;20318;-69
2023/08/02 05:53:21;;;;;;;4.57;1.75;;;;;;;-145.68;80.26;72496.53;10195498;29;20212;-69
2023/08/02 05:58:21;;;;;;;4.00;1.83;;;;;;;-145.68;81.30;72482.53;10212352;29;20239;-69
2023/08/02 06:03:21;;;;;;;4.80;1.95;;;;;;;-145.68;80.08;72430.59;10212319;29;20267;-69
2023/08/02 06:08:22;;;;;;;7.32;2.20;;;;;;;-145.68;76.46;72348.66;10211995;29;20238;-68
2023/08/02 06:13:22;;;;;;;8.77;2.17;;;;;;;-145.68;73.91;72328.69;10211936;29;20223;-69
2023/08/02 06:18:23;;;;;;;4.20;2.03;;;;;;;-145.68;69.76;72274.72;10211608;29;20240;-69
2023/08/02 06:23:23;;;;;;;3.33;1.70;;;;;;;-145.68;66.05;72156.84;10211629;29;20268;-69
2023/08/02 06:28:23;;;;;;;6.05;1.90;;;;;;;-145.68;64.92;72204.78;10211589;29;20241;-69
2023/08/02 06:33:24;;;;;;;8.70;2.00;;;;;;;-145.68;66.23;72254.75;10211268;29;20215;-68
2023/08/02 06:38:24;;;;;;;6.53;2.13;;;;;;;-145.68;67.24;72268.72;10194023;29;20246;-68
2023/08/02 06:43:24;;;;;;;6.32;1.95;;;;;;;-145.68;65.04;72204.78;10211111;29;20217;-69
2023/08/02 06:48:25;;;;;;;2.97;1.83;;;;;;;-145.68;62.09;72088.91;10210711;29;20235;-69
2023/08/02 06:53:26;;;;;;;6.60;2.13;;;;;;;-145.68;60.81;72128.84;10210715;29;20216;-68
2023/08/02 06:58:26;;;;;;;4.00;2.17;;;;;;;-145.68;61.95;72112.88;10210446;29;20814;-68
2023/08/02 07:03:27;;;;;;;3.08;1.70;;;;;;;-145.68;60.31;72016.97;10210644;29;20216;-69
2023/08/02 07:08:27;;;;;;;4.85;2.00;;;;;;;-145.68;62.10;72122.88;10210494;29;20309;-68
2023/08/02 07:13:27;;;;;;;3.28;1.70;;;;;;;-145.68;61.11;72148.84;10210376;29;20216;-69
2023/08/02 07:18:28;;;;;;;3.00;1.60;;;;;;;-145.68;60.52;72140.84;10210344;29;20243;-69
2023/08/02 07:23:28;;;;;;;4.13;1.73;;;;;;;-145.68;61.00;72166.81;10209995;29;20204;-69
2023/08/02 07:28:29;;;;;;;2.17;1.33;;;;;;;-145.68;60.42;72142.84;10210218;29;20232;-69
2023/08/02 07:33:29;;;;;;;3.92;1.60;;;;;;;-145.68;60.10;72140.84;10209958;29;20634;-71
2023/08/02 07:38:30;;;;;;;3.05;1.60;;;;;;;-145.68;60.15;72194.78;10209762;29;20248;-69
2023/08/02 07:43:30;;;;;;;5.25;1.60;;;;;;;-145.68;59.79;72142.84;10209934;29;20267;-69
2023/08/02 07:48:31;;;;;;;6.75;1.52;;;;;;;-145.68;60.28;72132.84;10209809;29;20228;-68
2023/08/02 07:53:31;;;;;;;2.97;1.40;;;;;;;-145.68;59.74;72084.91;10209951;29;20212;-69
2023/08/02 07:58:31;;;;;;;4.60;1.65;;;;;;;-145.68;59.92;72106.88;10209441;29;20243;-68
2023/08/02 08:03:32;;;;;;;3.45;1.75;;;;;;;-145.68;59.80;72058.94;10212551;29;20208;-69
2023/08/02 08:08:32;;;;;;;3.47;1.58;;;;;;;-145.68;59.55;72102.88;10216449;29;20290;-68
2023/08/02 08:13:33;;;;;;;5.15;1.88;;;;;;;-145.68;60.63;72110.88;10216553;29;20263;-69
2023/08/02 08:18:34;;;;;;;10.27;2.65;;;;;;;-145.68;60.93;72110.88;10215976;29;20232;-69
2023/08/02 08:23:35;;;;;;;4.03;2.40;;;;;;;-145.68;59.57;72044.94;10215412;29;20216;-69
2023/08/02 08:28:35;;;;;;;2.67;2.40;;;;;;;-145.68;61.75;72064.91;10212435;29;20235;-70
2023/08/02 08:33:35;;;;;;;7.57;3.08;;;;;;;-145.68;62.36;72078.91;10215645;29;20741;-70
2023/08/02 08:38:36;;;;;;;3.78;3.20;;;;;;;-145.68;62.74;72088.91;10215632;29;20695;-70
2023/08/02 08:43:36;;;;;;;6.70;2.50;;;;;;;-145.68;60.58;72086.91;10215064;29;20689;-70
2023/08/02 08:48:38;;;;;;;2.92;1.90;;;;;;;-145.68;59.53;72020.97;10215245;29;20702;-70
2023/08/02 08:53:42;;;;;;;4.18;2.22;;;;;;;-145.68;57.75;71985.00;10212782;29;20660;-69
2023/08/02 08:58:43;;;;;;;4.93;2.03;;;;;;;-145.68;57.53;72014.97;10253428;28;20231;-70
2023/08/02 09:03:45;;;;;;;5.28;3.30;;;;;;;-145.68;58.35;72026.97;10253126;29;20609;-70
2023/08/02 09:08:47;;;;;;;6.22;3.00;;;;;;;-145.68;58.20;72018.97;10253358;28;20235;-70
2023/08/02 09:13:47;;;;;;;4.75;2.33;;;;;;;-145.68;56.98;72050.94;10252296;28;20216;-68
2023/08/02 09:18:48;;;;;;;3.70;1.63;;;;;;;-145.68;54.51;71993.00;10252655;28;20235;-68
2023/08/02 09:23:56;;;;;;;3.67;2.38;;;;;;;-145.68;56.21;71939.03;10252427;29;20211;-68
2023/08/02 09:28:58;;;;;;;6.10;2.40;;;;;;;-145.68;56.38;71889.09;10253128;28;20262;-68
2023/08/02 09:33:59;;;;;;;3.10;2.25;;;;;;;-145.68;56.87;71945.03;10252724;29;20729;-69
2023/08/02 09:39:14;;;;;;;3.55;2.30;;;;;;;-145.68;56.31;71867.13;10252527;28;20246;-72
2023/08/02 09:44:21;;;;;;;8.23;2.40;;;;;;;-145.68;54.89;71867.13;10252451;29;20551;-71
2023/08/02 09:49:22;;;;;;;3.20;1.77;;;;;;;-145.68;55.26;71857.13;10252556;28;20239;-70
2023/08/02 09:54:22;;;;;;;4.93;2.50;;;;;;;-145.68;56.50;71929.06;10252041;29;20214;-71
2023/08/02 09:59:25;;;;;;;4.65;1.90;;;;;;;-145.68;57.28;71915.06;10252196;28;20261;-70
2023/08/02 10:04:26;;;;;;;4.50;2.65;;;;;;;-145.68;57.50;71899.09;10234756;29;20210;-67
2023/08/02 10:09:30;;;;;;;6.05;2.10;;;;;;;-145.68;56.61;71889.09;10251651;28;20243;-68
2023/08/02 10:14:31;;;;;;;3.67;2.25;;;;;;;-145.68;56.08;71867.13;10235319;29;20690;-70
2023/08/02 10:19:33;;;;;;;5.35;2.60;;;;;;;-145.68;57.46;71899.09;10251011;28;20246;-68
2023/08/02 10:24:33;;;;;;;5.82;1.65;;;;;;;-145.68;55.06;71869.13;10251054;28;20215;-68
2023/08/02 10:29:34;;;;;;;3.42;1.92;;;;;;;-145.68;54.70;71777.22;10250850;28;20239;-68
2023/08/02 10:34:34;;;;;;;3.42;2.55;;;;;;;-145.68;52.99;71769.22;10250620;29;20215;-69
2023/08/02 10:39:47;;;;;;;4.63;2.05;;;;;;;-145.68;52.26;71699.28;10250635;28;20250;-70
2023/08/02 10:44:56;;;;;;;5.78;2.50;;;;;;;-145.68;52.64;71675.31;10250496;28;20223;-69
2023/08/02 10:49:58;;;;;;;8.98;2.08;;;;;;;-145.68;50.98;71687.31;10250366;29;20211;-69
2023/08/02 10:55:16;;;;;;;3.33;2.05;;;;;;;-145.68;51.67;71601.41;10249889;28;20620;-70
2023/08/02 11:00:18;;;;;;;5.93;1.85;;;;;;;-145.68;50.58;71529.47;10250286;29;20266;-68
2023/08/02 11:05:46;;;;;;;2.85;1.30;;;;;;;-145.68;47.95;71519.47;10250105;28;20242;-69
2023/08/02 11:10:54;;;;;;;3.83;1.35;;;;;;;-145.68;47.06;71525.47;10240433;29;20274;-69
2023/08/02 11:16:02;;;;;;;4.47;1.83;;;;;;;-145.68;48.72;71637.34;10249498;28;20249;-69
2023/08/02 11:21:10;;;;;;;3.38;1.60;;;;;;;-145.68;49.33;71577.41;10250029;29;20265;-70
2023/08/02 11:26:15;;;;;;;4.75;1.70;;;;;;;-145.68;49.58;71661.31;10249129;28;20833;-70
2023/08/02 11:31:16;;;;;;;3.45;1.40;;;;;;;-145.68;49.65;71691.28;10249640;29;20215;-70
2023/08/02 11:36:16;;;;;;;3.35;1.77;;;;;;;-145.68;50.68;71737.25;10250636;28;20662;-67
2023/08/02 11:41:19;;;;;;;3.00;1.58;;;;;;;-145.68;50.81;71753.22;10257379;29;20219;-68
2023/08/02 11:46:25;;;;;;;7.97;1.77;;;;;;;-145.68;52.39;71765.22;10257117;28;20227;-68
2023/08/02 11:51:26;;;;;;;6.45;1.95;;;;;;;-145.68;52.84;71777.22;10256804;29;20737;-69
2023/08/02 11:56:27;;;;;;;4.15;1.85;;;;;;;-145.68;52.76;71781.19;10256557;28;20278;-68
2023/08/02 12:01:28;;;;;;;3.83;1.80;;;;;;;-145.68;53.47;71769.22;10239222;29;20238;-69
2023/08/02 12:06:44;;;;;;;3.25;1.80;;;;;;;-145.68;54.19;71773.22;10255892;28;20223;-69
2023/08/02 12:11:45;;;;;;;4.97;2.08;;;;;;;-145.68;55.14;71801.19;10255659;28;20234;-68
2023/08/02 12:16:46;;;;;;;4.10;1.77;;;;;;;-145.68;56.01;71769.22;10255620;28;20290;-70
2023/08/02 12:21:57;;;;;;;7.13;2.08;;;;;;;-145.68;55.94;71735.25;10255533;29;20695;-69
2023/08/02 12:27:19;;;;;;;3.13;1.75;;;;;;;-145.68;55.86;71769.22;10255341;28;20226;-70
2023/08/02 12:32:27;;;;;;;9.43;1.70;;;;;;;-145.68;57.29;71769.22;10255144;29;20705;-69
2023/08/02 12:37:30;;;;;;;5.72;2.00;;;;;;;-145.68;56.48;71729.25;10254975;28;20250;-72
2023/08/02 12:42:30;;;;;;;1.90;1.55;;;;;;;-145.68;57.16;71757.22;10254917;29;20208;-69
2023/08/02 12:47:30;;;;;;;4.13;1.90;;;;;;;-145.68;58.54;71799.19;10253978;28;20729;-69
2023/08/02 12:52:31;;;;;;;4.95;2.30;;;;;;;-145.68;59.42;71789.19;10254295;29;20631;-69
2023/08/02 12:57:31;;;;;;;3.28;2.60;;;;;;;-145.68;60.93;71817.16;10254388;28;20242;-69
2023/08/02 13:02:32;;;;;;;3.92;1.92;;;;;;;-145.68;60.77;71833.16;10254354;29;20211;-69
2023/08/02 13:07:32;;;;;;;2.05;1.77;;;;;;;-145.68;60.77;71813.16;10254183;28;20223;-70
2023/08/02 13:12:35;;;;;;;2.50;1.63;;;;;;;-145.68;61.07;71815.16;10253759;29;20266;-69
2023/08/02 13:17:35;;;;;;;7.60;2.72;;;;;;;-145.68;61.84;71811.16;10245949;28;20298;-69
2023/08/02 13:22:35;;;;;;;3.05;2.40;;;;;;;-145.68;63.63;71823.16;10253667;29;20274;-69
2023/08/02 13:27:36;;;;;;;6.03;2.08;;;;;;;-145.68;64.36;71875.09;10253666;28;20681;-69
2023/08/02 13:32:36;;;;;;;3.58;2.50;;;;;;;-145.68;66.73;71857.13;10236007;29;20218;-68
2023/08/02 13:37:40;;;;;;;3.20;1.70;;;;;;;-145.68;69.24;71911.06;10252637;28;20376;-69
2023/08/02 13:42:40;;;;;;;2.92;2.00;;;;;;;-145.68;70.75;71905.06;10253001;29;20215;-69
2023/08/02 13:47:40;;;;;;;3.30;1.75;;;;;;;-145.68;72.99;71915.06;10252308;28;20310;-69
2023/08/02 13:52:41;;;;;;;1.95;1.80;;;;;;;-145.68;75.70;71913.06;10252286;29;20215;-69
2023/08/02 13:57:41;;;;;;;3.40;2.40;;;;;;;-145.68;80.76;71917.06;10252025;28;20232;-70
2023/08/02 14:02:41;;;;;;;1.90;1.70;;;;;;;-145.68;84.42;71913.06;10251202;28;20211;-69
2023/08/02 14:07:42;;;;;;;2.85;2.55;;;;;;;-145.68;88.85;71933.03;10252348;28;20302;-70
2023/08/02 14:12:42;;;;;;;3.38;1.95;;;;;;;-145.68;90.50;71947.03;10251475;29;20215;-70
2023/08/02 14:17:43;;;;;;;3.55;1.80;;;;;;;-145.68;91.04;71927.06;10251663;28;20235;-70
2023/08/02 14:22:43;;;;;;;3.67;1.75;;;;;;;-145.68;90.64;71951.03;10251217;29;20222;-69
2023/08/02 14:27:43;;;;;;;2.97;2.70;;;;;;;-145.68;93.16;71965.00;10250970;28;20302;-69
2023/08/02 14:32:44;;;;;;;4.00;3.20;;;;;;;-145.68;96.66;71977.00;10251286;29;20211;-70
2023/08/02 14:37:45;;;;;;;3.42;2.40;;;;;;;-145.68;100.00;72012.97;10250493;28;20278;-70
2023/08/02 14:42:46;;;;;;;3.65;3.33;;;;;;;-145.68;100.00;72018.97;10250980;29;20222;-70
2023/08/02 14:47:47;;;;;;;3.95;3.20;;;;;;;-145.68;100.00;72026.97;10250434;28;20238;-70
2023/08/02 14:52:47;;;;;;;5.13;2.80;;;;;;;-145.68;100.00;72038.94;10250609;29;20211;-69
2023/08/02 14:57:47;;;;;;;2.40;1.60;;;;;;;-145.68;100.00;72056.94;10250219;28;20635;-69
2023/08/02 15:02:48;;;;;;;2.75;1.83;;;;;;;-145.68;100.00;72068.91;10250210;29;20211;-68
2023/08/02 15:07:48;;;;;;;2.95;2.35;;;;;;;-145.68;100.00;72068.91;10250117;28;20241;-68
2023/08/02 15:12:49;;;;;;;2.25;1.45;;;;;;;-145.68;100.00;72066.91;10255384;28;20215;-69
2023/08/02 15:17:49;;;;;;;2.50;2.30;;;;;;;-145.68;100.00;72076.91;10258120;28;20235;-70
2023/08/02 15:22:49;;;;;;;2.33;2.13;;;;;;;-145.68;100.00;72060.94;10258056;29;20211;-70
2023/08/02 15:27:50;;;;;;;2.00;1.90;;;;;;;-145.68;100.00;72060.94;10257731;28;20238;-70
2023/08/02 15:32:50;;;;;;;2.50;2.30;;;;;;;-145.68;100.00;72068.91;10257698;29;20225;-70
2023/08/02 15:37:51;;;;;;;3.58;3.28;;;;;;;-145.68;100.00;72046.94;10257310;28;20777;-70
2023/08/02 15:42:51;;;;;;;2.10;2.00;;;;;;;-145.68;100.00;72036.94;10257368;29;20737;-70
2023/08/02 15:47:52;;;;;;;3.17;2.30;;;;;;;-145.68;100.00;72024.97;10257135;28;20231;-70
2023/08/02 15:52:52;;;;;;;3.92;2.40;;;;;;;-145.68;100.00;72000.97;10256911;29;20278;-70
2023/08/02 15:57:52;;;;;;;2.45;2.25;;;;;;;-145.68;100.00;71996.97;10256551;28;20255;-71
2023/08/02 16:02:53;;;;;;;2.80;2.47;;;;;;;-145.68;100.00;71981.00;10257291;29;20306;-70
2023/08/02 16:07:54;;;;;;;2.60;2.40;;;;;;;-145.68;100.00;71969.00;10256292;28;20298;-71
2023/08/02 16:12:55;;;;;;;2.90;2.70;;;;;;;-145.68;100.00;71973.00;10256483;29;20218;-71
2023/08/02 16:17:55;;;;;;;2.67;2.53;;;;;;;-145.68;100.00;71955.03;10255670;28;20243;-71
2023/08/02 16:22:55;;;;;;;2.83;2.63;;;;;;;-145.68;100.00;71953.03;10255320;28;20207;-71
2023/08/02 16:27:56;;;;;;;2.03;1.92;;;;;;;-145.68;100.00;71951.03;10255446;28;20233;-71
2023/08/02 16:32:56;;;;;;;1.92;1.83;;;;;;;-145.68;100.00;71951.03;10255481;29;20207;-70
2023/08/02 16:37:56;;;;;;;2.10;2.00;;;;;;;-145.68;100.00;71943.03;10255368;28;20246;-69
2023/08/02 16:42:57;;;;;;;1.40;1.30;;;;;;;-145.68;100.00;71953.03;10254971;29;20215;-68
2023/08/02 16:47:57;;;;;;;1.80;1.70;;;;;;;-145.68;100.00;71931.06;10255028;28;20724;-69
2023/08/02 16:52:57;;;;;;;1.05;1.05;;;;;;;-145.68;100.00;71887.09;10254463;29;20701;-67
2023/08/02 16:57:59;;;;;;;1.40;1.40;;;;;;;-145.68;100.00;71869.13;10254860;23;20248;-69
2023/08/02 17:02:59;;;;;;;1.10;1.10;;;;;;;-145.68;100.00;71885.09;10214929;29;20842;-68
2023/08/02 17:08:00;;;;;;;1.10;1.10;;;;;;;-145.68;100.00;71895.09;10192661;29;20311;-70
2023/08/02 17:13:00;;;;;;;3.47;1.15;;;;;;;-145.68;100.00;71881.09;10175254;29;20220;-69
2023/08/02 17:18:00;;;;;;;1.15;1.10;;;;;;;-145.68;100.00;71893.09;10174843;29;20240;-69
2023/08/02 17:23:01;;;;;;;1.70;1.60;;;;;;;-145.68;100.00;71881.09;10174795;29;20220;-70
2023/08/02 17:28:01;;;;;;;3.88;1.60;;;;;;;-145.68;100.00;71875.09;10174424;29;20244;-68
2023/08/02 17:33:01;;;;;;;2.70;2.50;;;;;;;-145.68;100.00;71861.13;10173979;29;20213;-68
2023/08/02 17:38:03;;;;;;;4.18;3.80;;;;;;;-145.68;100.00;71861.13;10173438;29;20244;-69
2023/08/02 17:43:03;;;;;;;4.28;3.97;;;;;;;-145.68;100.00;71889.09;10213071;29;20216;-69
2023/08/02 17:48:09;;;;;;;5.47;5.00;;;;;;;-145.68;100.00;71881.09;10213777;29;20224;-70
2023/08/02 17:53:10;;;;;;;5.60;5.13;;;;;;;-145.68;100.00;71889.09;10215028;29;20272;-70
2023/08/02 17:58:10;;;;;;;6.18;5.65;;;;;;;-145.68;100.00;71877.09;10214695;29;20660;-69
2023/08/02 18:03:10;;;;;;;6.80;6.10;;;;;;;-145.68;100.00;71881.09;10214530;29;20583;-70
2023/08/02 18:08:12;;;;;;;8.38;7.57;;;;;;;-145.68;100.00;71863.13;10214477;29;20242;-69
2023/08/02 18:13:12;;;;;;;5.65;5.03;;;;;;;-145.68;100.00;71875.09;10214994;29;20706;-70
2023/08/02 18:18:12;;;;;;;6.45;5.95;;;;;;;-145.68;100.00;71873.09;10215105;29;20239;-69
2023/08/02 18:23:13;;;;;;;5.90;5.35;;;;;;;-145.68;100.00;71853.13;10212983;29;20203;-69
2023/08/02 18:28:13;;;;;;;5.22;4.78;;;;;;;-145.68;100.00;71869.13;10211763;29;20302;-70
2023/08/02 18:33:14;;;;;;;5.88;5.30;;;;;;;-145.68;100.00;71891.09;10211474;29;20291;-69
2023/08/02 18:38:14;;;;;;;5.63;5.22;;;;;;;-145.68;100.00;71881.09;10211099;29;20228;-70
2023/08/02 18:43:22;;;;;;;5.20;4.80;;;;;;;-145.68;100.00;71877.09;10211071;29;20279;-69
2023/08/02 18:48:23;;;;;;;5.47;4.97;;;;;;;-145.68;100.00;71885.09;10211024;29;20738;-68
2023/08/02 18:53:23;;;;;;;5.28;4.75;;;;;;;-145.68;100.00;71877.09;10211104;29;20219;-68
2023/08/02 18:58:25;;;;;;;4.35;4.05;;;;;;;-145.68;100.00;71867.13;10210551;29;20231;-69
2023/08/02 19:03:25;;;;;;;4.55;4.20;;;;;;;-145.68;100.00;71861.13;10210850;29;20235;-69
2023/08/02 19:08:26;;;;;;;4.82;4.43;;;;;;;-145.68;100.00;71875.09;10210370;29;20235;-69
2023/08/02 19:13:26;;;;;;;5.10;4.60;;;;;;;-145.68;100.00;71873.09;10210484;29;20208;-68
2023/08/02 19:18:27;;;;;;;5.07;4.68;;;;;;;-145.68;100.00;71861.13;10210255;29;20239;-69
2023/08/02 19:23:30;;;;;;;4.28;3.97;;;;;;;-145.68;100.00;71883.09;10210297;29;20208;-69
2023/08/02 19:28:32;;;;;;;4.32;4.03;;;;;;;-145.68;100.00;71877.09;10193311;29;20231;-68
2023/08/02 19:33:32;;;;;;;4.82;4.38;;;;;;;-145.68;100.00;71895.09;10210048;29;20372;-69
2023/08/02 19:38:33;;;;;;;5.82;5.15;;;;;;;-145.68;100.00;71927.06;10210209;29;20243;-69
2023/08/02 19:43:33;;;;;;;6.53;4.60;;;;;;;-145.68;100.00;71943.03;10209804;29;20581;-69
2023/08/02 19:48:36;;;;;;;3.67;3.38;;;;;;;-145.68;100.00;71969.00;10209830;29;20581;-69
2023/08/02 19:53:36;;;;;;;5.13;4.63;;;;;;;-145.68;100.00;71985.00;10209729;29;20574;-70
2023/08/02 19:58:38;;;;;;;4.97;4.57;;;;;;;-145.68;100.00;72018.97;10212354;29;20278;-69
2023/08/02 20:03:39;;;;;;;5.25;4.80;;;;;;;-145.68;100.00;72028.94;10217095;29;20216;-69
2023/08/02 20:08:39;;;;;;;6.88;5.90;;;;;;;-145.68;100.00;72070.91;10216767;29;20228;-69
2023/08/02 20:13:41;;;;;;;7.13;6.18;;;;;;;-145.68;100.00;72082.91;10216793;29;20204;-70
2023/08/02 20:18:41;;;;;;;7.78;7.07;;;;;;;-145.68;100.00;72070.91;10216590;29;20251;-70
2023/08/02 20:23:42;;;;;;;7.93;7.22;;;;;;;-145.68;100.00;72056.94;10216269;29;20709;-70
2023/08/02 20:28:52;;;;;;;6.93;5.90;;;;;;;-145.68;100.00;71967.00;10216100;29;20612;-70
2023/08/02 20:33:54;;;;;;;5.32;4.30;;;;;;;-145.68;100.00;71913.06;10215943;29;20208;-70
2023/08/02 20:38:55;;;;;;;4.03;3.63;;;;;;;-145.68;100.00;71857.13;10214140;29;20311;-70
2023/08/02 20:43:56;;;;;;;2.60;2.40;;;;;;;-145.68;100.00;71799.19;10215980;29;20220;-69
2023/08/02 20:49:02;;;;;;;1.98;1.88;;;;;;;-145.68;100.00;71787.19;10215124;29;20804;-69
2023/08/02 20:54:06;;;;;;;1.88;1.77;;;;;;;-145.68;100.00;71761.22;10215379;29;20216;-69
2023/08/02 20:59:11;;;;;;;2.08;1.35;;;;;;;-145.68;100.00;71745.25;10214816;29;20330;-69
2023/08/02 21:04:12;;;;;;;1.55;1.45;;;;;;;-145.68;100.00;71733.25;10214801;29;20282;-69
2023/08/02 21:09:13;;;;;;;3.05;1.38;;;;;;;-145.68;100.00;71727.25;10214385;29;20236;-69
2023/08/02 21:14:13;;;;;;;1.33;1.23;;;;;;;-145.68;100.00;71697.28;10214230;29;20208;-68
2023/08/02 21:19:13;;;;;;;1.63;1.52;;;;;;;-145.68;93.72;71727.25;10197370;29;20247;-68
2023/08/02 21:24:16;;;;;;;1.83;1.20;;;;;;;-145.68;86.16;71721.25;10214085;29;20216;-68
2023/08/02 21:29:17;;;;;;;0.80;0.80;;;;;;;-145.68;79.89;71709.28;10196716;29;20230;-68
2023/08/02 21:34:17;;;;;;;1.23;1.10;;;;;;;-145.68;76.65;71711.28;10213664;29;20572;-68
2023/08/02 21:39:19;;;;;;;2.65;1.20;;;;;;;-145.68;73.99;71733.25;10213135;29;20250;-69
2023/08/02 21:44:19;;;;;;;1.17;1.00;;;;;;;-145.68;71.27;71729.25;10213374;29;20208;-69
2023/08/02 21:49:20;;;;;;;2.35;1.10;;;;;;;-145.68;71.41;71739.25;10212997;29;20232;-71
2023/08/02 21:54:20;;;;;;;4.90;1.13;;;;;;;-145.68;71.17;71743.25;10213052;29;20212;-69
2023/08/02 21:59:21;;;;;;;3.17;1.40;;;;;;;-145.68;70.11;71743.25;10212762;29;20741;-68
2023/08/02 22:04:24;;;;;;;1.27;1.05;;;;;;;-145.68;68.46;71721.25;10212373;29;20311;-69
2023/08/02 22:09:25;;;;;;;1.73;1.20;;;;;;;-145.68;69.42;71777.22;10212647;29;20265;-70
2023/08/02 22:14:26;;;;;;;2.35;1.38;;;;;;;-145.68;69.12;71763.22;10212067;29;20283;-69
2023/08/02 22:19:27;;;;;;;4.47;1.55;;;;;;;-145.68;68.64;71755.22;10211629;29;20361;-70
2023/08/02 22:24:28;;;;;;;2.22;1.30;;;;;;;-145.68;68.27;71777.22;10211824;29;20299;-70
2023/08/02 22:29:28;;;;;;;3.90;1.30;;;;;;;-145.68;67.53;71771.22;10211723;29;20325;-70
2023/08/02 22:34:29;;;;;;;2.03;1.38;;;;;;;-145.68;67.32;71765.22;10214446;29;20222;-70
2023/08/02 22:39:29;;;;;;;6.50;1.10;;;;;;;-145.68;66.94;71763.22;10211351;29;20318;-70